createdAt,value
2018-02-13T00:00:54.655Z,77.29
2018-02-13T00:01:54.700Z,77.2
2018-02-13T00:02:54.635Z,77.27
2018-02-13T00:03:54.629Z,77.43
2018-02-13T00:04:54.689Z,77.34
2018-02-13T00:05:54.726Z,77.15
2018-02-13T00:06:54.630Z,77.02
2018-02-13T00:07:54.759Z,77.07
2018-02-13T00:08:54.641Z,77.17
2018-02-13T00:12:54.797Z,77.33
2018-02-13T00:13:56.067Z,77.34
2018-02-13T00:14:55.627Z,77.44
2018-02-13T00:15:54.596Z,77.51
2018-02-13T00:16:54.572Z,77.51
2018-02-13T00:17:54.581Z,77.64
2018-02-13T00:18:54.585Z,77.6
2018-02-13T00:19:54.579Z,77.35
2018-02-13T00:20:54.946Z,77.2
2018-02-13T00:21:54.756Z,77.49
2018-02-13T00:22:54.575Z,77.38
2018-02-13T00:23:54.585Z,77.24
2018-02-13T00:24:54.587Z,76.91
2018-02-13T00:25:54.580Z,77.07
2018-02-13T00:26:54.584Z,77.29
2018-02-13T00:27:54.778Z,77.05
2018-02-13T00:28:54.594Z,77.19
2018-02-13T00:29:54.574Z,77.58
2018-02-13T00:30:54.574Z,77.33
2018-02-13T00:31:54.578Z,77.44
2018-02-13T00:32:54.743Z,77.44
2018-02-13T00:33:55.399Z,77.49
2018-02-13T00:34:54.587Z,77.47
2018-02-13T00:35:55.163Z,77.42
2018-02-13T00:36:54.592Z,77.01
2018-02-13T00:37:54.582Z,77.22
2018-02-13T00:38:54.587Z,77.07
2018-02-13T00:39:54.749Z,77.24
2018-02-13T00:40:54.597Z,76.88
2018-02-13T00:41:54.872Z,76.87
2018-02-13T00:42:54.936Z,77.02
2018-02-13T00:43:54.764Z,76.86
2018-02-13T00:44:54.648Z,76.88
2018-02-13T00:45:54.589Z,77.2
2018-02-13T00:46:54.488Z,77.4
2018-02-13T00:47:54.493Z,77.31
2018-02-13T00:48:54.492Z,76.98
2018-02-13T00:49:54.499Z,77.1
2018-02-13T00:50:54.484Z,77.04
2018-02-13T00:51:54.491Z,77.16
2018-02-13T00:52:54.502Z,76.91
2018-02-13T00:53:54.536Z,77
2018-02-13T00:54:54.536Z,77.03
2018-02-13T00:55:54.509Z,77
2018-02-13T00:56:54.503Z,77.2
2018-02-13T00:57:54.490Z,76.97
2018-02-13T00:58:54.499Z,76.82
2018-02-13T00:59:54.911Z,76.91
2018-02-13T01:00:54.505Z,77.07
2018-02-13T01:01:54.573Z,77.06
2018-02-13T01:02:54.488Z,77.2
2018-02-13T01:03:54.500Z,77.28
2018-02-13T01:04:54.522Z,76.99
2018-02-13T01:05:54.504Z,77.13
2018-02-13T01:06:54.508Z,77.03
2018-02-13T01:07:54.514Z,76.84
2018-02-13T01:08:54.511Z,77.13
2018-02-13T01:09:54.510Z,77.29
2018-02-13T01:10:54.519Z,77.03
2018-02-13T01:11:54.507Z,77.15
2018-02-13T01:12:54.494Z,76.93
2018-02-13T01:13:54.513Z,77.21
2018-02-13T01:14:54.500Z,77.11
2018-02-13T01:15:54.526Z,77.02
2018-02-13T01:16:54.518Z,76.95
2018-02-13T01:17:54.342Z,76.89
2018-02-13T01:18:54.357Z,76.94
2018-02-13T01:19:54.357Z,76.92
2018-02-13T01:20:54.386Z,76.82
2018-02-13T01:21:54.413Z,76.76
2018-02-13T01:22:54.349Z,76.8
2018-02-13T01:23:54.362Z,76.82
2018-02-13T01:24:54.359Z,76.89
2018-02-13T01:25:54.360Z,76.81
2018-02-13T01:26:54.360Z,76.95
2018-02-13T01:27:54.350Z,76.97
2018-02-13T01:28:54.362Z,76.8
2018-02-13T01:29:54.354Z,76.76
2018-02-13T01:30:54.353Z,76.61
2018-02-13T01:31:54.370Z,76.67
2018-02-13T01:32:54.752Z,76.54
2018-02-13T01:33:54.894Z,76.57
2018-02-13T01:34:54.362Z,76.64
2018-02-13T01:35:55.344Z,76.69
2018-02-13T01:36:54.371Z,76.69
2018-02-13T01:37:54.358Z,76.63
2018-02-13T01:38:54.362Z,76.48
2018-02-13T01:42:06.387Z,76.47
2018-02-13T01:42:54.357Z,76.55
2018-02-13T01:43:54.586Z,76.68
2018-02-13T01:44:54.360Z,76.84
2018-02-13T01:45:54.368Z,76.69
2018-02-13T01:46:54.357Z,76.83
2018-02-13T01:47:54.368Z,76.75
2018-02-13T01:48:54.204Z,76.89
2018-02-13T01:49:54.222Z,76.84
2018-02-13T01:50:54.216Z,76.71
2018-02-13T01:51:54.376Z,76.65
2018-02-13T01:52:54.203Z,76.86
2018-02-13T01:53:54.370Z,76.76
2018-02-13T01:54:54.265Z,76.93
2018-02-13T01:55:54.213Z,76.71
2018-02-13T01:56:54.209Z,76.66
2018-02-13T01:57:54.212Z,76.98
2018-02-13T02:00:28.248Z,77.02
2018-02-13T02:00:54.372Z,77.01
2018-02-13T02:01:54.520Z,76.84
2018-02-13T02:02:54.221Z,77.25
2018-02-13T02:03:54.219Z,77.01
2018-02-13T02:04:54.221Z,76.95
2018-02-13T02:05:54.207Z,77.21
2018-02-13T02:06:54.212Z,77.37
2018-02-13T02:07:54.199Z,77.1
2018-02-13T02:08:54.660Z,77.09
2018-02-13T02:09:54.455Z,77.02
2018-02-13T02:10:54.215Z,76.99
2018-02-13T02:11:54.205Z,77.11
2018-02-13T02:12:54.488Z,77.06
2018-02-13T02:13:54.212Z,77.11
2018-02-13T02:14:54.394Z,77.01
2018-02-13T02:15:54.201Z,77.08
2018-02-13T02:16:54.233Z,76.89
2018-02-13T02:17:54.225Z,76.87
2018-02-13T02:18:54.213Z,77.05
2018-02-13T02:19:54.172Z,77.52
2018-02-13T02:20:54.137Z,77.4
2018-02-13T02:21:54.171Z,77.37
2018-02-13T02:22:54.144Z,77.34
2018-02-13T02:23:54.144Z,77.35
2018-02-13T02:24:54.132Z,77.44
2018-02-13T02:25:54.175Z,77.32
2018-02-13T02:26:54.126Z,77.13
2018-02-13T02:27:54.141Z,77.34
2018-02-13T02:28:54.159Z,77.23
2018-02-13T02:29:54.185Z,77.24
2018-02-13T02:30:54.152Z,77.23
2018-02-13T02:31:54.136Z,77.22
2018-02-13T02:32:54.140Z,77.37
2018-02-13T02:33:54.145Z,77.18
2018-02-13T02:34:54.163Z,77.3
2018-02-13T02:35:54.149Z,77.12
2018-02-13T02:36:54.127Z,77.38
2018-02-13T02:37:54.133Z,77.41
2018-02-13T02:38:54.141Z,77.34
2018-02-13T02:39:54.142Z,77.31
2018-02-13T02:40:54.201Z,77.56
2018-02-13T02:41:54.244Z,77.77
2018-02-13T02:42:54.158Z,77.62
2018-02-13T02:43:54.165Z,77.74
2018-02-13T02:44:54.147Z,77.83
2018-02-13T02:45:54.160Z,77.97
2018-02-13T02:46:54.128Z,77.62
2018-02-13T02:47:54.174Z,77.83
2018-02-13T02:48:54.144Z,77.92
2018-02-13T02:49:54.159Z,77.91
2018-02-13T02:50:54.025Z,77.79
2018-02-13T02:51:54.012Z,77.7
2018-02-13T02:52:54.010Z,77.71
2018-02-13T02:53:54.063Z,77.49
2018-02-13T02:54:54.017Z,77.53
2018-02-13T02:55:54.193Z,77.63
2018-02-13T02:56:53.990Z,77.64
2018-02-13T02:57:53.998Z,77.76
2018-02-13T02:58:54.000Z,77.6
2018-02-13T02:59:54.000Z,77.44
2018-02-13T03:00:54.036Z,77.62
2018-02-13T03:01:54.007Z,77.67
2018-02-13T03:02:54.006Z,77.41
2018-02-13T03:03:54.026Z,77.73
2018-02-13T03:04:54.002Z,77.82
2018-02-13T03:05:54.025Z,77.71
2018-02-13T03:06:53.996Z,77.81
2018-02-13T03:07:54.143Z,77.84
2018-02-13T03:10:21.036Z,77.69
2018-02-13T03:10:53.995Z,77.81
2018-02-13T03:11:53.996Z,77.84
2018-02-13T03:12:54.015Z,77.81
2018-02-13T03:13:54.067Z,77.9
2018-02-13T03:14:53.992Z,77.82
2018-02-13T03:15:53.999Z,77.85
2018-02-13T03:16:54.012Z,77.95
2018-02-13T03:18:02.049Z,77.91
2018-02-13T03:18:54.062Z,77.94
2018-02-13T03:19:54.055Z,77.91
2018-02-13T03:20:53.997Z,78.05
2018-02-13T03:21:53.833Z,77.84
2018-02-13T03:22:53.830Z,78.01
2018-02-13T03:23:53.824Z,78.3
2018-02-13T03:24:53.829Z,78
2018-02-13T03:25:53.823Z,77.98
2018-02-13T03:26:53.837Z,77.98
2018-02-13T03:27:53.897Z,78.03
2018-02-13T03:28:53.829Z,77.84
2018-02-13T03:29:53.828Z,77.97
2018-02-13T03:30:53.866Z,77.7
2018-02-13T03:31:53.844Z,77.95
2018-02-13T03:32:53.869Z,78.07
2018-02-13T03:33:53.830Z,78.01
2018-02-13T03:34:53.843Z,78.16
2018-02-13T03:35:53.858Z,77.96
2018-02-13T03:36:53.852Z,78.07
2018-02-13T03:37:53.833Z,78.16
2018-02-13T03:38:53.870Z,78.12
2018-02-13T03:39:53.850Z,78.42
2018-02-13T03:40:53.853Z,78.15
2018-02-13T03:41:53.860Z,78.34
2018-02-13T03:42:53.836Z,78.12
2018-02-13T03:43:53.870Z,78.32
2018-02-13T03:44:53.860Z,78.31
2018-02-13T03:45:53.840Z,78.46
2018-02-13T03:46:53.861Z,78.17
2018-02-13T03:47:53.861Z,78.42
2018-02-13T03:48:53.889Z,78.57
2018-02-13T03:49:53.843Z,78.63
2018-02-13T03:50:53.849Z,78.68
2018-02-13T03:51:53.858Z,78.63
2018-02-13T03:52:54.670Z,78.6
2018-02-13T03:53:54.983Z,78.41
2018-02-13T03:54:54.678Z,78.46
2018-02-13T03:55:54.683Z,78.42
2018-02-13T03:56:54.666Z,78.66
2018-02-13T03:57:54.678Z,78.69
2018-02-13T03:58:54.700Z,78.59
2018-02-13T03:59:54.673Z,78.37
2018-02-13T04:00:54.688Z,78.48
2018-02-13T04:01:54.670Z,78.52
2018-02-13T04:02:54.691Z,78.55
2018-02-13T04:03:54.703Z,78.56
2018-02-13T04:04:54.689Z,78.47
2018-02-13T04:05:54.674Z,78.61
2018-02-13T04:06:54.680Z,78.64
2018-02-13T04:07:54.684Z,78.63
2018-02-13T04:08:54.691Z,78.75
2018-02-13T04:09:54.709Z,78.97
2018-02-13T04:10:54.682Z,78.69
2018-02-13T04:11:54.713Z,79
2018-02-13T04:12:54.694Z,79.01
2018-02-13T04:13:54.710Z,78.94
2018-02-13T04:14:54.732Z,78.91
2018-02-13T04:15:54.689Z,78.7
2018-02-13T04:16:54.701Z,78.93
2018-02-13T04:17:54.699Z,79.05
2018-02-13T04:18:54.722Z,79.06
2018-02-13T04:19:54.708Z,79.16
2018-02-13T04:20:54.692Z,78.86
2018-02-13T04:21:54.701Z,78.67
2018-02-13T04:22:54.523Z,79.02
2018-02-13T04:23:54.647Z,79.06
2018-02-13T04:24:54.527Z,78.96
2018-02-13T04:25:54.527Z,79
2018-02-13T04:26:54.535Z,78.99
2018-02-13T04:27:54.524Z,79.07
2018-02-13T04:28:54.548Z,78.95
2018-02-13T04:29:54.527Z,78.89
2018-02-13T04:30:54.535Z,79.16
2018-02-13T04:31:54.544Z,78.98
2018-02-13T04:32:54.544Z,78.84
2018-02-13T04:33:54.646Z,78.57
2018-02-13T04:34:54.532Z,78.79
2018-02-13T04:35:54.521Z,79.09
2018-02-13T04:36:54.536Z,79.22
2018-02-13T04:37:54.525Z,78.94
2018-02-13T04:38:54.561Z,78.92
2018-02-13T04:39:54.548Z,78.94
2018-02-13T04:40:54.808Z,78.83
2018-02-13T04:41:54.542Z,78.92
2018-02-13T04:42:54.541Z,79.19
2018-02-13T04:43:54.552Z,79.31
2018-02-13T04:44:54.542Z,79.17
2018-02-13T04:45:54.558Z,79.04
2018-02-13T04:46:54.529Z,79.08
2018-02-13T04:47:54.545Z,78.81
2018-02-13T04:48:54.576Z,78.76
2018-02-13T04:49:54.543Z,78.88
2018-02-13T04:50:54.547Z,79.24
2018-02-13T04:51:54.530Z,78.91
2018-02-13T04:52:54.537Z,79.16
2018-02-13T04:53:54.382Z,78.96
2018-02-13T04:54:54.374Z,79.04
2018-02-13T04:55:54.759Z,79.13
2018-02-13T04:56:54.375Z,79.15
2018-02-13T04:57:54.359Z,79.25
2018-02-13T04:58:54.378Z,78.82
2018-02-13T04:59:54.380Z,78.72
2018-02-13T05:00:54.421Z,79.04
2018-02-13T05:01:54.377Z,78.78
2018-02-13T05:02:54.391Z,79.16
2018-02-13T05:03:54.380Z,78.95
2018-02-13T05:04:54.393Z,78.98
2018-02-13T05:05:54.781Z,78.92
2018-02-13T05:06:54.377Z,79.02
2018-02-13T05:07:54.386Z,78.88
2018-02-13T05:08:54.375Z,78.75
2018-02-13T05:09:54.382Z,78.73
2018-02-13T05:10:54.424Z,79.02
2018-02-13T05:11:54.387Z,78.88
2018-02-13T05:12:54.378Z,78.81
2018-02-13T05:13:54.392Z,78.93
2018-02-13T05:14:54.387Z,78.98
2018-02-13T05:15:54.386Z,79.12
2018-02-13T05:16:54.385Z,79.2
2018-02-13T05:17:54.418Z,78.7
2018-02-13T05:18:54.396Z,78.46
2018-02-13T05:19:54.390Z,78.52
2018-02-13T05:20:54.401Z,78.54
2018-02-13T05:21:54.389Z,78.58
2018-02-13T05:22:54.411Z,78.79
2018-02-13T05:23:54.390Z,78.62
2018-02-13T05:24:54.228Z,78.96
2018-02-13T05:25:54.253Z,78.99
2018-02-13T05:26:54.230Z,79.04
2018-02-13T05:28:54.244Z,78.66
2018-02-13T05:29:54.238Z,78.81
2018-02-13T05:30:54.232Z,79.08
2018-02-13T05:31:54.218Z,78.91
2018-02-13T05:32:54.260Z,78.69
2018-02-13T05:33:54.269Z,79.05
2018-02-13T05:34:54.239Z,79.05
2018-02-13T05:35:54.219Z,79.05
2018-02-13T05:36:54.229Z,78.82
2018-02-13T05:37:54.263Z,79.17
2018-02-13T05:38:54.243Z,79.2
2018-02-13T05:39:54.231Z,79.04
2018-02-13T05:40:54.251Z,78.83
2018-02-13T05:41:54.241Z,78.86
2018-02-13T05:42:54.269Z,78.73
2018-02-13T05:43:54.232Z,78.88
2018-02-13T05:44:54.238Z,78.79
2018-02-13T05:45:54.242Z,78.71
2018-02-13T05:46:54.252Z,78.77
2018-02-13T05:47:54.233Z,78.71
2018-02-13T05:48:54.266Z,78.69
2018-02-13T05:49:54.275Z,78.82
2018-02-13T05:50:54.283Z,78.56
2018-02-13T05:51:54.235Z,78.55
2018-02-13T05:52:54.246Z,79.04
2018-02-13T05:53:54.242Z,79.09
2018-02-13T05:54:54.253Z,78.91
2018-02-13T05:55:54.132Z,78.64
2018-02-13T05:56:54.125Z,78.9
2018-02-13T06:00:22.147Z,79.03
2018-02-13T06:00:54.134Z,79.06
2018-02-13T06:01:54.322Z,78.74
2018-02-13T06:02:54.165Z,79.1
2018-02-13T06:03:54.128Z,79.21
2018-02-13T06:04:54.122Z,78.97
2018-02-13T06:05:54.125Z,78.99
2018-02-13T06:06:54.304Z,79.15
2018-02-13T06:07:54.126Z,79.12
2018-02-13T06:08:54.142Z,78.93
2018-02-13T06:09:54.136Z,78.9
2018-02-13T06:10:54.156Z,78.8
2018-02-13T06:11:54.139Z,78.86
2018-02-13T06:12:54.136Z,79.3
2018-02-13T06:13:54.121Z,79.27
2018-02-13T06:14:54.121Z,79.22
2018-02-13T06:15:54.135Z,79.4
2018-02-13T06:16:54.124Z,79.37
2018-02-13T06:17:54.141Z,79.33
2018-02-13T06:18:54.132Z,79
2018-02-13T06:19:54.172Z,79.06
2018-02-13T06:20:54.182Z,79.24
2018-02-13T06:21:54.122Z,79.32
2018-02-13T06:22:54.138Z,79.46
2018-02-13T06:23:54.146Z,79.39
2018-02-13T06:24:54.147Z,79.12
2018-02-13T06:25:54.122Z,79.1
2018-02-13T06:26:53.993Z,79.32
2018-02-13T06:27:53.947Z,79.37
2018-02-13T06:28:53.974Z,79.3
2018-02-13T06:29:53.968Z,79.45
2018-02-13T06:30:53.980Z,79.88
2018-02-13T06:31:53.973Z,79.71
2018-02-13T06:32:53.974Z,79.87
2018-02-13T06:33:53.969Z,79.97
2018-02-13T06:34:54.025Z,80.15
2018-02-13T06:35:53.966Z,80.25
2018-02-13T06:36:53.967Z,80.24
2018-02-13T06:37:53.978Z,79.95
2018-02-13T06:38:54.182Z,80.06
2018-02-13T06:39:54.043Z,80.2
2018-02-13T06:40:53.978Z,80.33
2018-02-13T06:41:53.982Z,80.2
2018-02-13T06:42:54.031Z,79.9
2018-02-13T06:43:53.979Z,80.72
2018-02-13T06:44:54.000Z,80.49
2018-02-13T06:45:53.982Z,80.83
2018-02-13T06:46:53.976Z,80.86
2018-02-13T06:47:53.978Z,81.36
2018-02-13T06:48:53.987Z,80.97
2018-02-13T06:49:53.994Z,80.85
2018-02-13T06:50:53.982Z,81.02
2018-02-13T06:51:53.972Z,80.99
2018-02-13T06:52:53.976Z,80.83
2018-02-13T06:53:53.987Z,81.14
2018-02-13T06:54:53.971Z,81.68
2018-02-13T06:55:53.968Z,81.09
2018-02-13T06:56:54.094Z,81.62
2018-02-13T06:57:53.911Z,81.57
2018-02-13T06:58:53.976Z,81.76
2018-02-13T06:59:53.924Z,81.64
2018-02-13T07:00:53.941Z,81.82
2018-02-13T07:01:53.947Z,82.06
2018-02-13T07:02:53.916Z,81.7
2018-02-13T07:03:53.922Z,80.98
2018-02-13T07:04:53.925Z,81.19
2018-02-13T07:05:53.913Z,81.38
2018-02-13T07:06:53.916Z,81.41
2018-02-13T07:07:53.923Z,81.84
2018-02-13T07:08:53.942Z,81.96
2018-02-13T07:09:53.904Z,82.25
2018-02-13T07:10:53.918Z,82.53
2018-02-13T07:11:53.906Z,82.23
2018-02-13T07:12:53.922Z,81.99
2018-02-13T07:13:53.911Z,82.22
2018-02-13T07:14:53.910Z,82.19
2018-02-13T07:15:53.924Z,82.12
2018-02-13T07:16:53.988Z,82.45
2018-02-13T07:17:53.923Z,82.28
2018-02-13T07:18:53.923Z,82.19
2018-02-13T07:19:53.935Z,82.28
2018-02-13T07:20:53.941Z,82.41
2018-02-13T07:21:53.949Z,82.31
2018-02-13T07:22:53.936Z,82.37
2018-02-13T07:23:53.929Z,82.09
2018-02-13T07:24:53.936Z,82.1
2018-02-13T07:25:53.915Z,82.28
2018-02-13T07:26:53.922Z,82.14
2018-02-13T07:27:53.919Z,82.17
2018-02-13T07:28:53.797Z,82.58
2018-02-13T07:29:53.812Z,82.46
2018-02-13T07:30:53.792Z,82.16
2018-02-13T07:31:53.880Z,82.42
2018-02-13T07:32:53.809Z,82.35
2018-02-13T07:33:53.797Z,82.22
2018-02-13T07:34:53.800Z,82.31
2018-02-13T07:35:53.810Z,82.14
2018-02-13T07:36:53.810Z,81.98
2018-02-13T07:37:53.803Z,82.04
2018-02-13T07:38:53.816Z,81.64
2018-02-13T07:39:53.852Z,81.96
2018-02-13T07:40:53.909Z,82
2018-02-13T07:41:53.802Z,81.83
2018-02-13T07:42:53.795Z,81.89
2018-02-13T07:43:53.806Z,81.88
2018-02-13T07:44:53.806Z,82.01
2018-02-13T07:45:53.822Z,82.28
2018-02-13T07:46:53.826Z,82.18
2018-02-13T07:47:53.801Z,82.17
2018-02-13T07:48:53.809Z,81.93
2018-02-13T07:49:53.815Z,81.91
2018-02-13T07:50:53.813Z,81.78
2018-02-13T07:51:53.803Z,82.11
2018-02-13T07:52:53.790Z,82.07
2018-02-13T07:53:53.801Z,81.87
2018-02-13T07:54:53.866Z,82.03
2018-02-13T07:55:53.822Z,82.08
2018-02-13T07:56:53.805Z,81.78
2018-02-13T07:57:53.871Z,81.96
2018-02-13T07:58:53.805Z,81.68
2018-02-13T07:59:54.630Z,81.73
2018-02-13T08:00:54.921Z,81.64
2018-02-13T08:01:54.623Z,81.81
2018-02-13T08:02:54.625Z,81.87
2018-02-13T08:03:54.638Z,81.73
2018-02-13T08:04:54.625Z,81.46
2018-02-13T08:05:54.647Z,81.62
2018-02-13T08:06:54.621Z,81.45
2018-02-13T08:07:54.762Z,81.28
2018-02-13T08:08:54.677Z,81.38
2018-02-13T08:09:54.769Z,81.47
2018-02-13T08:10:54.660Z,81.94
2018-02-13T08:11:54.620Z,81.63
2018-02-13T08:12:54.623Z,81.39
2018-02-13T08:13:54.620Z,81.42
2018-02-13T08:14:54.624Z,81.63
2018-02-13T08:15:54.619Z,81.39
2018-02-13T08:16:54.624Z,81.55
2018-02-13T08:17:54.628Z,81.58
2018-02-13T08:18:54.637Z,81.52
2018-02-13T08:19:54.624Z,81.4
2018-02-13T08:20:54.625Z,81.34
2018-02-13T08:21:54.631Z,81.31
2018-02-13T08:22:54.628Z,81.57
2018-02-13T08:23:54.651Z,81.46
2018-02-13T08:24:54.620Z,81.48
2018-02-13T08:25:54.624Z,81.55
2018-02-13T08:26:54.633Z,81.37
2018-02-13T08:27:54.700Z,81.43
2018-02-13T08:28:54.650Z,81.39
2018-02-13T08:29:54.534Z,81.46
2018-02-13T08:30:54.538Z,81.55
2018-02-13T08:31:54.542Z,81.47
2018-02-13T08:32:54.523Z,81.59
2018-02-13T08:33:54.534Z,81.51
2018-02-13T08:34:54.538Z,81.24
2018-02-13T08:35:54.543Z,81.73
2018-02-13T08:36:54.525Z,81.41
2018-02-13T08:37:54.543Z,81.15
2018-02-13T08:38:54.547Z,81.23
2018-02-13T08:39:54.544Z,81.15
2018-02-13T08:40:54.529Z,81.1
2018-02-13T08:41:54.535Z,81.22
2018-02-13T08:42:54.543Z,80.97
2018-02-13T08:43:54.610Z,81
2018-02-13T08:44:54.556Z,81.03
2018-02-13T08:45:54.541Z,80.74
2018-02-13T08:46:54.552Z,80.83
2018-02-13T08:47:54.539Z,81.04
2018-02-13T08:48:54.542Z,80.72
2018-02-13T08:49:54.607Z,80.7
2018-02-13T08:50:54.549Z,80.4
2018-02-13T08:51:54.560Z,80.33
2018-02-13T08:52:54.530Z,79.95
2018-02-13T08:53:54.541Z,80
2018-02-13T08:54:54.584Z,79.99
2018-02-13T08:55:54.546Z,79.98
2018-02-13T08:56:54.539Z,79.89
2018-02-13T08:57:54.552Z,80.13
2018-02-13T08:58:54.590Z,79.92
2018-02-13T08:59:54.552Z,79.8
2018-02-13T09:00:54.393Z,80.08
2018-02-13T09:01:54.402Z,79.99
2018-02-13T09:02:54.429Z,79.98
2018-02-13T09:03:54.399Z,79.81
2018-02-13T09:04:54.407Z,79.62
2018-02-13T09:05:54.419Z,79.24
2018-02-13T09:06:54.623Z,79.49
2018-02-13T09:07:54.397Z,79.12
2018-02-13T09:08:54.411Z,79.11
2018-02-13T09:09:54.404Z,79.27
2018-02-13T09:10:54.407Z,79.24
2018-02-13T09:11:54.426Z,79.21
2018-02-13T09:12:54.416Z,79.08
2018-02-13T09:13:54.408Z,78.94
2018-02-13T09:14:54.425Z,79.19
2018-02-13T09:15:54.397Z,78.75
2018-02-13T09:16:54.430Z,78.76
2018-02-13T09:17:54.454Z,78.81
2018-02-13T09:18:54.432Z,78.82
2018-02-13T09:19:54.408Z,79.02
2018-02-13T09:20:54.416Z,78.89
2018-02-13T09:21:54.407Z,78.78
2018-02-13T09:22:54.422Z,78.83
2018-02-13T09:23:54.468Z,78.8
2018-02-13T09:24:54.408Z,78.92
2018-02-13T09:25:54.406Z,78.64
2018-02-13T09:26:54.413Z,78.52
2018-02-13T09:27:54.424Z,78.57
2018-02-13T09:28:54.400Z,78.42
2018-02-13T09:29:54.796Z,78.44
2018-02-13T09:30:54.638Z,78.13
2018-02-13T09:31:54.625Z,77.82
2018-02-13T09:32:54.628Z,77.14
2018-02-13T09:33:54.643Z,76.89
2018-02-13T09:34:54.670Z,77.11
2018-02-13T09:35:54.628Z,77.43
2018-02-13T09:36:54.634Z,77.24
2018-02-13T09:37:54.623Z,77.29
2018-02-13T09:38:54.633Z,77.03
2018-02-13T09:39:54.659Z,76.97
2018-02-13T09:40:54.634Z,77.35
2018-02-13T09:41:54.632Z,77.5
2018-02-13T09:42:54.636Z,77.76
2018-02-13T09:43:54.642Z,77.76
2018-02-13T09:44:54.635Z,77.49
2018-02-13T09:45:54.921Z,77.67
2018-02-13T09:46:54.623Z,77.79
2018-02-13T09:47:54.630Z,77.96
2018-02-13T09:48:54.637Z,77.81
2018-02-13T09:49:54.696Z,77.76
2018-02-13T09:50:54.665Z,77.72
2018-02-13T09:51:54.630Z,77.86
2018-02-13T09:52:54.635Z,77.92
2018-02-13T09:53:54.639Z,77.54
2018-02-13T09:54:54.640Z,77.28
2018-02-13T09:55:54.680Z,77.17
2018-02-13T09:56:54.654Z,76.66
2018-02-13T09:57:54.642Z,77.18
2018-02-13T09:58:54.625Z,76.72
2018-02-13T09:59:54.639Z,76.65
2018-02-13T10:00:54.671Z,76.12
2018-02-13T10:01:54.530Z,76.34
2018-02-13T10:02:54.493Z,75.98
2018-02-13T10:03:54.520Z,76.41
2018-02-13T10:04:54.512Z,75.72
2018-02-13T10:05:54.528Z,75.56
2018-02-13T10:06:54.507Z,75.58
2018-02-13T10:07:54.503Z,75.39
2018-02-13T10:08:54.494Z,75.34
2018-02-13T10:09:54.521Z,75.44
2018-02-13T10:10:54.537Z,75.59
2018-02-13T10:11:54.507Z,74.39
2018-02-13T10:12:54.517Z,73.8
2018-02-13T10:13:54.501Z,73.55
2018-02-13T10:14:54.508Z,72.52
2018-02-13T10:15:54.513Z,71.73
2018-02-13T10:16:54.502Z,72.29
2018-02-13T10:17:54.512Z,72.66
2018-02-13T10:18:54.494Z,73.06
2018-02-13T10:19:54.506Z,72.84
2018-02-13T10:20:54.499Z,72.82
2018-02-13T10:21:54.536Z,72.21
2018-02-13T10:22:54.511Z,72.45
2018-02-13T10:23:54.506Z,72.61
2018-02-13T10:24:54.524Z,72.4
2018-02-13T10:25:54.517Z,72.8
2018-02-13T10:26:54.517Z,72.85
2018-02-13T10:27:54.591Z,72.94
2018-02-13T10:28:54.611Z,71.88
2018-02-13T10:29:54.593Z,70.78
2018-02-13T10:30:54.603Z,70.95
2018-02-13T10:31:54.768Z,70.38
2018-02-13T10:32:53.836Z,71.4
2018-02-13T10:33:53.846Z,71.78
2018-02-13T10:34:53.857Z,71.5
2018-02-13T10:35:53.859Z,71.1
2018-02-13T10:36:53.867Z,71.47
2018-02-13T10:37:53.865Z,69.42
2018-02-13T10:38:53.856Z,67.34
2018-02-13T10:39:53.839Z,66.65
2018-02-13T10:40:53.887Z,66.84
2018-02-13T10:41:53.845Z,66.9
2018-02-13T10:42:53.846Z,67.38
2018-02-13T10:43:53.848Z,67.23
2018-02-13T10:44:53.842Z,66.53
2018-02-13T10:45:53.882Z,66.81
2018-02-13T10:46:53.865Z,65.94
2018-02-13T10:47:53.862Z,65.78
2018-02-13T10:48:53.859Z,65.57
2018-02-13T10:49:53.847Z,65.73
2018-02-13T10:50:53.889Z,66.54
2018-02-13T10:51:53.863Z,65.96
2018-02-13T10:52:53.851Z,66
2018-02-13T10:54:53.884Z,65.29
2018-02-13T10:55:53.868Z,64.76
2018-02-13T10:56:53.836Z,65.99
2018-02-13T10:57:53.848Z,65.29
2018-02-13T10:58:53.853Z,66.51
2018-02-13T10:59:53.860Z,66.21
2018-02-13T11:00:53.878Z,65.26
2018-02-13T11:01:53.870Z,64.67
2018-02-13T11:02:53.857Z,64.03
2018-02-13T11:03:53.688Z,64.43
2018-02-13T11:04:53.694Z,64.14
2018-02-13T11:05:53.797Z,64.41
2018-02-13T11:06:53.911Z,63.21
2018-02-13T11:07:53.690Z,63.73
2018-02-13T11:08:53.689Z,63.42
2018-02-13T11:09:53.684Z,63.34
2018-02-13T11:10:53.733Z,63.99
2018-02-13T11:11:53.719Z,64.43
2018-02-13T11:12:53.695Z,62.99
2018-02-13T11:13:53.670Z,62.67
2018-02-13T11:14:53.815Z,63.36
2018-02-13T11:15:53.704Z,63.5
2018-02-13T11:16:53.729Z,63.71
2018-02-13T11:17:53.677Z,62.79
2018-02-13T11:18:53.699Z,63.43
2018-02-13T11:19:53.701Z,63.28
2018-02-13T11:20:53.674Z,62.79
2018-02-13T11:21:53.693Z,62.43
2018-02-13T11:22:53.690Z,62.05
2018-02-13T11:23:53.693Z,57.92
2018-02-13T11:24:53.708Z,56.45
2018-02-13T11:25:53.690Z,54.97
2018-02-13T11:26:53.796Z,52.1
2018-02-13T11:27:53.703Z,50.69
2018-02-13T11:28:53.681Z,51.25
2018-02-13T11:29:53.689Z,50.19
2018-02-13T11:30:53.683Z,49.08
2018-02-13T11:31:53.673Z,50.06
2018-02-13T11:32:53.684Z,51.66
2018-02-13T11:33:53.687Z,50.07
2018-02-13T11:34:54.551Z,49.49
2018-02-13T11:35:54.577Z,48.97
2018-02-13T11:36:54.536Z,49.17
2018-02-13T11:37:54.513Z,48.38
2018-02-13T11:38:54.533Z,49.23
2018-02-13T11:39:54.564Z,49.08
2018-02-13T11:40:54.517Z,47.59
2018-02-13T11:41:54.516Z,48.34
2018-02-13T11:42:54.524Z,49.38
2018-02-13T11:43:54.508Z,49.2
2018-02-13T11:44:54.518Z,48.82
2018-02-13T11:45:54.524Z,48.41
2018-02-13T11:46:54.527Z,47.41
2018-02-13T11:47:54.521Z,48.93
2018-02-13T11:48:54.532Z,47.76
2018-02-13T11:49:54.531Z,48.04
2018-02-13T11:50:54.527Z,48.22
2018-02-13T11:51:54.876Z,50.34
2018-02-13T11:52:54.533Z,49.6
2018-02-13T11:53:58.794Z,50.31
2018-02-13T11:55:00.943Z,49.78
2018-02-13T11:55:56.132Z,50.18
2018-02-13T11:56:54.738Z,48.06
2018-02-13T11:57:54.524Z,49.05
2018-02-13T11:58:54.516Z,48.24
2018-02-13T11:59:54.595Z,49.08
2018-02-13T12:00:54.528Z,48.29
2018-02-13T12:01:54.549Z,48.91
2018-02-13T12:02:54.530Z,47.95
2018-02-13T12:03:54.561Z,48.12
2018-02-13T12:04:53.708Z,47.02
2018-02-13T12:05:53.734Z,48
2018-02-13T12:06:53.691Z,46.24
2018-02-13T12:07:53.674Z,46.23
2018-02-13T12:08:53.706Z,47.05
2018-02-13T12:09:53.698Z,46.81
2018-02-13T12:10:53.691Z,46.9
2018-02-13T12:11:53.774Z,46
2018-02-13T12:12:53.676Z,46.41
2018-02-13T12:13:54.123Z,46.44
2018-02-13T12:14:53.741Z,46.11
2018-02-13T12:15:53.702Z,46.09
2018-02-13T12:16:53.672Z,46.31
2018-02-13T12:17:53.685Z,46.18
2018-02-13T12:18:53.694Z,44.49
2018-02-13T12:19:53.674Z,46.78
2018-02-13T12:20:53.684Z,45.48
2018-02-13T12:21:53.666Z,46.06
2018-02-13T12:22:53.691Z,46.83
2018-02-13T12:23:53.713Z,46.9
2018-02-13T12:24:53.688Z,45.82
2018-02-13T12:25:53.677Z,46.24
2018-02-13T12:26:53.691Z,45.43
2018-02-13T12:27:53.669Z,45.31
2018-02-13T12:28:53.709Z,44.63
2018-02-13T12:29:53.690Z,44.46
2018-02-13T12:30:53.692Z,46.47
2018-02-13T12:31:53.690Z,47.08
2018-02-13T12:32:53.680Z,46.21
2018-02-13T12:33:53.704Z,44.98
2018-02-13T12:34:53.701Z,45.17
2018-02-13T12:35:54.564Z,44.23
2018-02-13T12:36:54.569Z,43.78
2018-02-13T12:37:54.540Z,44.08
2018-02-13T12:38:54.542Z,44.54
2018-02-13T12:39:54.558Z,44.45
2018-02-13T12:40:54.539Z,46.31
2018-02-13T12:41:54.547Z,46.97
2018-02-13T12:42:54.753Z,45.3
2018-02-13T12:43:54.556Z,44.34
2018-02-13T12:44:54.954Z,44.65
2018-02-13T12:45:54.548Z,43.99
2018-02-13T12:46:54.555Z,44.31
2018-02-13T12:47:54.561Z,44.77
2018-02-13T12:48:54.673Z,44.23
2018-02-13T12:49:54.573Z,43.59
2018-02-13T12:50:54.547Z,43.14
2018-02-13T12:51:54.570Z,44.3
2018-02-13T12:52:54.537Z,44.42
2018-02-13T12:53:54.544Z,43.34
2018-02-13T12:54:54.574Z,43.36
2018-02-13T12:55:54.561Z,43.02
2018-02-13T12:56:54.545Z,43.48
2018-02-13T12:57:54.625Z,44.65
2018-02-13T12:58:54.555Z,43.28
2018-02-13T12:59:54.584Z,43.42
2018-02-13T13:00:54.574Z,43.57
2018-02-13T13:01:54.555Z,44.85
2018-02-13T13:02:54.560Z,42.97
2018-02-13T13:03:54.570Z,43.64
2018-02-13T13:04:54.577Z,43.76
2018-02-13T13:05:54.425Z,43.4
2018-02-13T13:06:54.433Z,42.88